createdAt,value
2016-06-15T00:01:14.100Z,15.47
2016-06-15T00:02:14.119Z,15.5
2016-06-15T00:03:14.138Z,15.44
2016-06-15T00:04:14.000Z,15.5
2016-06-15T00:05:14.206Z,15.5
2016-06-15T00:06:14.209Z,15.56
2016-06-15T00:07:14.243Z,15.56
2016-06-15T00:08:14.278Z,15.64
2016-06-15T00:09:14.281Z,15.5
2016-06-15T00:10:14.316Z,15.49
2016-06-15T00:11:14.333Z,15.41
2016-06-15T00:12:28.541Z,15.35
2016-06-15T00:14:14.406Z,15.25
2016-06-15T00:15:14.440Z,15.36
2016-06-15T00:16:14.459Z,15.32
2016-06-15T00:17:14.477Z,15.31
2016-06-15T00:18:14.512Z,15.29
2016-06-15T00:20:14.408Z,15.28
2016-06-15T00:21:14.584Z,15.27
2016-06-15T00:22:14.602Z,15.31
2016-06-15T00:23:14.621Z,15.25
2016-06-15T00:24:28.827Z,15.28
2016-06-15T00:25:14.674Z,15.2
2016-06-15T00:26:14.692Z,15.27
2016-06-15T00:27:28.899Z,15.2
2016-06-15T00:28:14.745Z,15.31
2016-06-15T00:29:14.764Z,15.2
2016-06-15T00:30:14.798Z,15.17
2016-06-15T00:32:14.852Z,15.21
2016-06-15T00:33:14.714Z,15.2
2016-06-15T00:34:14.889Z,15.11
2016-06-15T00:36:14.943Z,15.27
2016-06-15T00:37:14.960Z,15.23
2016-06-15T00:38:29.166Z,15.21
2016-06-15T00:39:15.014Z,15.28
2016-06-15T00:40:15.033Z,15.31
2016-06-15T00:41:15.066Z,15.19
2016-06-15T00:42:15.086Z,15.21
2016-06-15T00:44:15.139Z,15.2
2016-06-15T00:45:15.157Z,15.07
2016-06-15T00:46:15.176Z,15.11
2016-06-15T00:48:15.229Z,15.11
2016-06-15T00:49:15.263Z,15.16
2016-06-15T00:50:15.266Z,15.11
2016-06-15T00:51:15.317Z,15.19
2016-06-15T00:52:15.334Z,15.21
2016-06-15T00:53:15.354Z,15.27
2016-06-15T00:54:29.560Z,15.13
2016-06-15T00:55:15.391Z,15.06
2016-06-15T00:56:15.426Z,15.01
2016-06-15T00:57:15.444Z,15.02
2016-06-15T00:58:15.494Z,15.01
2016-06-15T00:59:29.752Z,14.92
2016-06-15T01:00:15.635Z,14.98
2016-06-15T01:01:15.690Z,15.09
2016-06-15T01:02:15.745Z,15.03
2016-06-15T01:03:15.781Z,15.1
2016-06-15T01:04:15.828Z,15.17
2016-06-15T01:05:17.298Z,15.23
2016-06-15T01:07:15.939Z,15.17
2016-06-15T01:08:15.964Z,15.1
2016-06-15T01:10:15.870Z,15.03
2016-06-15T01:11:16.067Z,15.06
2016-06-15T01:12:16.074Z,15.1
2016-06-15T01:13:16.111Z,15.09
2016-06-15T01:14:16.131Z,15.06
2016-06-15T01:15:30.339Z,15.1
2016-06-15T01:16:16.187Z,15.13
2016-06-15T01:17:16.223Z,15.13
2016-06-15T01:18:16.228Z,15.09
2016-06-15T01:19:16.262Z,15.09
2016-06-15T01:20:16.313Z,14.99
2016-06-15T01:21:16.317Z,15.09
2016-06-15T01:22:16.336Z,15.06
2016-06-15T01:23:16.355Z,15.01
2016-06-15T01:24:16.374Z,14.99
2016-06-15T01:25:16.392Z,14.94
2016-06-15T01:26:16.442Z,14.92
2016-06-15T01:27:16.462Z,14.99
2016-06-15T01:28:16.479Z,15.11
2016-06-15T01:29:16.499Z,15.06
2016-06-15T01:30:16.517Z,15.14
2016-06-15T01:31:30.724Z,15.06
2016-06-15T01:33:16.589Z,15.01
2016-06-15T01:34:16.622Z,14.92
2016-06-15T01:35:17.283Z,14.98
2016-06-15T01:36:16.660Z,14.99
2016-06-15T01:37:16.695Z,15.02
2016-06-15T01:38:16.714Z,14.94
2016-06-15T01:39:16.748Z,14.94
2016-06-15T01:40:16.610Z,14.89
2016-06-15T01:41:30.973Z,14.84
2016-06-15T01:42:16.835Z,14.75
2016-06-15T01:43:16.838Z,14.91
2016-06-15T01:44:16.858Z,14.91
2016-06-15T01:45:16.875Z,14.88
2016-06-15T01:46:16.909Z,14.84
2016-06-15T01:47:31.116Z,14.92
2016-06-15T01:48:16.948Z,14.89
2016-06-15T01:49:16.982Z,14.83
2016-06-15T01:51:17.019Z,14.73
2016-06-15T01:52:17.053Z,14.65
2016-06-15T01:54:17.106Z,14.65
2016-06-15T01:55:17.125Z,14.7
2016-06-15T01:56:17.144Z,14.62
2016-06-15T01:57:17.178Z,14.65
2016-06-15T01:58:17.243Z,14.57
2016-06-15T01:59:17.216Z,14.65
2016-06-15T02:00:17.235Z,14.65
2016-06-15T02:01:17.269Z,14.68
2016-06-15T02:02:31.475Z,14.61
2016-06-15T02:03:17.322Z,14.69
2016-06-15T02:04:17.340Z,14.65
2016-06-15T02:05:17.359Z,14.68
2016-06-15T02:07:17.396Z,14.68
2016-06-15T02:08:17.431Z,14.64
2016-06-15T02:09:17.449Z,14.64
2016-06-15T02:10:17.483Z,14.78
2016-06-15T02:11:17.503Z,14.73
2016-06-15T02:12:17.522Z,14.7
2016-06-15T02:13:17.556Z,14.72
2016-06-15T02:14:17.575Z,14.69
2016-06-15T02:15:31.781Z,14.62
2016-06-15T02:16:17.471Z,14.64
2016-06-15T02:17:17.646Z,14.65
2016-06-15T02:18:17.665Z,14.58
2016-06-15T02:19:17.699Z,14.61
2016-06-15T02:20:18.202Z,14.64
2016-06-15T02:21:17.752Z,14.61
2016-06-15T02:22:17.771Z,14.51
2016-06-15T02:23:17.789Z,14.5
2016-06-15T02:25:17.842Z,14.39
2016-06-15T02:26:17.861Z,14.45
2016-06-15T02:27:17.895Z,14.39
2016-06-15T02:28:17.914Z,14.45
2016-06-15T02:29:17.932Z,14.54
2016-06-15T02:30:17.952Z,14.55
2016-06-15T02:31:17.985Z,14.52
2016-06-15T02:32:18.020Z,14.5
2016-06-15T02:33:18.023Z,14.5
2016-06-15T02:34:32.229Z,14.52
2016-06-15T02:35:18.076Z,14.45
2016-06-15T02:36:18.110Z,14.47
2016-06-15T02:37:18.129Z,14.46
2016-06-15T02:38:18.148Z,14.47
2016-06-15T02:39:18.166Z,14.45
2016-06-15T02:40:18.200Z,14.4
2016-06-15T02:41:18.220Z,14.35
2016-06-15T02:42:18.253Z,14.29
2016-06-15T02:43:18.273Z,14.37
2016-06-15T02:44:32.479Z,14.43
2016-06-15T02:45:18.326Z,14.45
2016-06-15T02:46:18.344Z,14.4
2016-06-15T02:47:18.207Z,14.51
2016-06-15T02:48:18.382Z,14.54
2016-06-15T02:49:18.416Z,14.5
2016-06-15T02:50:32.686Z,14.5
2016-06-15T02:51:18.313Z,14.46
2016-06-15T02:52:18.488Z,14.45
2016-06-15T02:53:18.350Z,14.39
2016-06-15T02:54:18.526Z,14.36
2016-06-15T02:55:18.560Z,14.33
2016-06-15T02:56:18.579Z,14.36
2016-06-15T02:57:18.596Z,14.36
2016-06-15T02:58:18.616Z,14.32
2016-06-15T02:59:32.837Z,14.4
2016-06-15T03:00:32.856Z,14.43
2016-06-15T03:01:18.703Z,14.46
2016-06-15T03:02:18.738Z,14.57
2016-06-15T03:03:18.756Z,14.64
2016-06-15T03:04:18.759Z,14.68
2016-06-15T03:05:19.168Z,14.6
2016-06-15T03:06:33.000Z,14.64
2016-06-15T03:07:18.847Z,14.7
2016-06-15T03:08:18.866Z,14.61
2016-06-15T03:09:18.884Z,14.7
2016-06-15T03:10:18.917Z,14.57
2016-06-15T03:11:18.921Z,14.73
2016-06-15T03:13:18.974Z,14.86
2016-06-15T03:14:18.993Z,14.86
2016-06-15T03:15:33.215Z,14.88
2016-06-15T03:16:33.233Z,14.88
2016-06-15T03:17:19.081Z,14.99
2016-06-15T03:18:19.099Z,14.91
2016-06-15T03:19:19.133Z,14.88
2016-06-15T03:21:19.483Z,14.94
2016-06-15T03:22:33.376Z,15.01
2016-06-15T03:23:19.224Z,14.99
2016-06-15T03:24:19.242Z,14.96
2016-06-15T03:26:19.296Z,15.11
2016-06-15T03:27:19.314Z,14.99
2016-06-15T03:28:19.333Z,15.06
2016-06-15T03:29:19.195Z,15.16
2016-06-15T03:30:19.386Z,15.11
2016-06-15T03:31:19.404Z,15.14
2016-06-15T03:32:19.439Z,15.19
2016-06-15T03:33:33.645Z,15.17
2016-06-15T03:34:19.321Z,15.21
2016-06-15T03:35:19.510Z,15.25
2016-06-15T03:36:20.155Z,15.28
2016-06-15T03:37:33.736Z,15.29
2016-06-15T03:38:19.426Z,15.27
2016-06-15T03:39:19.601Z,15.41
2016-06-15T03:40:19.635Z,15.43
2016-06-15T03:41:19.638Z,15.46
2016-06-15T03:42:19.673Z,15.49
2016-06-15T03:43:19.723Z,15.5
2016-06-15T03:44:19.726Z,15.49
2016-06-15T03:45:19.745Z,15.6
2016-06-15T03:46:33.950Z,15.69
2016-06-15T03:47:19.782Z,15.74
2016-06-15T03:48:19.816Z,15.83
2016-06-15T03:49:19.835Z,15.83
2016-06-15T03:50:19.869Z,15.92
2016-06-15T03:51:19.732Z,15.8
2016-06-15T03:52:19.906Z,15.9
2016-06-15T03:53:19.941Z,16.01
2016-06-15T03:54:19.959Z,16
2016-06-15T03:55:19.978Z,16.04
2016-06-15T03:56:20.013Z,16.14
2016-06-15T03:57:20.031Z,16.23
2016-06-15T03:59:20.100Z,16.3
2016-06-15T04:00:20.103Z,16.35
2016-06-15T04:01:20.122Z,16.41
2016-06-15T04:02:34.343Z,16.49
2016-06-15T04:03:20.175Z,16.58
2016-06-15T04:04:20.052Z,16.63
2016-06-15T04:05:20.228Z,16.67
2016-06-15T04:06:20.247Z,16.86
2016-06-15T04:07:20.281Z,16.94
2016-06-15T04:08:20.300Z,17.11
2016-06-15T04:09:34.521Z,17.26
2016-06-15T04:10:20.352Z,17.23
2016-06-15T04:11:20.371Z,17.55
2016-06-15T04:12:20.390Z,17.71
2016-06-15T04:13:20.424Z,17.93
2016-06-15T04:14:20.458Z,18.08
2016-06-15T04:15:20.478Z,18.15
2016-06-15T04:16:20.495Z,18.36
2016-06-15T04:17:20.515Z,18.58
2016-06-15T04:18:20.549Z,18.72
2016-06-15T04:19:20.568Z,19
2016-06-15T04:20:20.602Z,18.98
2016-06-15T04:21:21.683Z,19.08
2016-06-15T04:22:20.639Z,19.11
2016-06-15T04:23:20.674Z,19.18
2016-06-15T04:24:20.693Z,19.18
2016-06-15T04:25:34.898Z,19.56
2016-06-15T04:26:20.746Z,19.78
2016-06-15T04:27:20.764Z,19.91
2016-06-15T04:28:20.783Z,20.06
2016-06-15T04:29:20.818Z,20.03
2016-06-15T04:30:20.836Z,19.99
2016-06-15T04:31:20.871Z,19.92
2016-06-15T04:32:20.905Z,19.76
2016-06-15T04:33:35.111Z,19.66
2016-06-15T04:35:35.148Z,19.41
2016-06-15T04:36:21.214Z,19.33
2016-06-15T04:37:21.029Z,19.23
2016-06-15T04:38:21.048Z,19.22
2016-06-15T04:39:21.082Z,19.16
2016-06-15T04:40:21.102Z,19.21
2016-06-15T04:41:35.307Z,19.21
2016-06-15T04:42:21.154Z,19.21
2016-06-15T04:43:21.172Z,19.29
2016-06-15T04:44:21.206Z,19.51
2016-06-15T04:45:21.225Z,19.5
2016-06-15T04:46:21.245Z,19.59
2016-06-15T04:47:21.278Z,19.5
2016-06-15T04:48:21.298Z,19.51
2016-06-15T04:50:21.350Z,19.28
2016-06-15T04:51:21.244Z,19.13
2016-06-15T04:52:21.403Z,19.11
2016-06-15T04:53:21.422Z,19.04
2016-06-15T04:54:21.472Z,19.13
2016-06-15T04:55:21.475Z,19.13
2016-06-15T04:56:21.353Z,18.99
2016-06-15T04:57:35.716Z,19.02
2016-06-15T04:58:21.562Z,18.87
2016-06-15T04:59:21.597Z,18.98
2016-06-15T05:00:21.615Z,19.04
2016-06-15T05:01:21.634Z,18.9
2016-06-15T05:02:21.653Z,18.88
2016-06-15T05:03:21.687Z,18.95
2016-06-15T05:04:21.706Z,19.04
2016-06-15T05:05:21.740Z,19.06
2016-06-15T05:06:22.181Z,19.14
2016-06-15T05:07:21.777Z,19.14
2016-06-15T05:08:21.813Z,19.18
2016-06-15T05:09:21.830Z,19.4
2016-06-15T05:10:21.850Z,19.55
2016-06-15T05:11:21.883Z,19.59
2016-06-15T05:12:36.090Z,19.55
2016-06-15T05:13:21.937Z,19.59
2016-06-15T05:14:21.956Z,19.73
2016-06-15T05:15:21.990Z,19.76
2016-06-15T05:16:22.009Z,19.78
2016-06-15T05:18:22.061Z,19.68
2016-06-15T05:19:22.081Z,19.77
2016-06-15T05:20:22.114Z,19.77
2016-06-15T05:21:22.415Z,19.78
2016-06-15T05:22:22.167Z,19.61
2016-06-15T05:23:36.374Z,19.83
2016-06-15T05:24:22.220Z,19.74
2016-06-15T05:25:22.255Z,19.87
2016-06-15T05:26:22.273Z,19.74
2016-06-15T05:27:22.293Z,19.76
2016-06-15T05:28:22.311Z,19.98
2016-06-15T05:29:22.345Z,19.78
2016-06-15T05:30:22.395Z,19.69
2016-06-15T05:31:22.398Z,19.71
2016-06-15T05:32:22.417Z,19.74
2016-06-15T05:33:22.436Z,19.87
2016-06-15T05:34:22.470Z,19.8
2016-06-15T05:35:22.349Z,19.8
2016-06-15T05:36:23.101Z,19.91
2016-06-15T05:37:22.541Z,19.92
2016-06-15T05:38:22.576Z,19.86
2016-06-15T05:39:36.782Z,19.76
2016-06-15T05:40:36.800Z,19.77
2016-06-15T05:41:22.648Z,19.73
2016-06-15T05:42:22.682Z,19.83
2016-06-15T05:43:22.700Z,19.77
2016-06-15T05:44:36.907Z,19.86
2016-06-15T05:45:22.598Z,19.73
2016-06-15T05:46:22.773Z,19.69
2016-06-15T05:47:22.822Z,19.78
2016-06-15T05:48:22.858Z,19.8
2016-06-15T05:49:22.860Z,19.73
2016-06-15T05:50:22.894Z,19.8
2016-06-15T05:51:23.225Z,19.68
2016-06-15T05:52:22.932Z,19.58
2016-06-15T05:53:22.950Z,19.58
2016-06-15T05:54:22.829Z,19.61
2016-06-15T05:55:23.003Z,19.65
2016-06-15T05:56:23.038Z,19.62
2016-06-15T05:57:23.056Z,19.65
2016-06-15T05:58:22.919Z,19.61
2016-06-15T05:59:22.953Z,19.66
2016-06-15T06:00:37.315Z,19.55
2016-06-15T06:01:23.209Z,19.5
2016-06-15T06:02:23.182Z,19.47
2016-06-15T06:03:23.199Z,19.44
2016-06-15T06:04:23.235Z,19.47
2016-06-15T06:05:23.268Z,19.59
2016-06-15T06:06:23.162Z,19.59
2016-06-15T06:07:23.322Z,19.55
2016-06-15T06:09:23.374Z,19.25
2016-06-15T06:10:23.393Z,19.25
2016-06-15T06:11:37.599Z,19.1
2016-06-15T06:12:23.431Z,19.07
2016-06-15T06:13:23.466Z,19.06
2016-06-15T06:14:23.483Z,18.91
2016-06-15T06:15:23.519Z,18.85
2016-06-15T06:16:37.724Z,18.85
2016-06-15T06:17:23.572Z,18.85
2016-06-15T06:18:23.589Z,18.87
2016-06-15T06:19:23.609Z,18.76
2016-06-15T06:20:23.643Z,18.73
2016-06-15T06:21:23.521Z,18.73
2016-06-15T06:22:23.696Z,18.6
2016-06-15T06:23:23.715Z,18.6
2016-06-15T06:24:23.733Z,18.67
2016-06-15T06:25:23.767Z,18.62
2016-06-15T06:26:23.802Z,18.65
2016-06-15T06:27:38.008Z,18.66
2016-06-15T06:28:23.839Z,18.82
2016-06-15T06:29:23.874Z,18.75
2016-06-15T06:30:23.907Z,18.88
2016-06-15T06:31:23.911Z,18.75
2016-06-15T06:32:38.117Z,18.87
2016-06-15T06:33:23.980Z,18.84
2016-06-15T06:34:23.999Z,18.82
2016-06-15T06:35:24.033Z,18.87
2016-06-15T06:36:24.333Z,18.91
2016-06-15T06:37:23.944Z,18.85
2016-06-15T06:38:24.104Z,18.8
2016-06-15T06:39:24.123Z,18.91
2016-06-15T06:40:24.142Z,18.88
2016-06-15T06:41:24.176Z,19.07
2016-06-15T06:42:24.038Z,19.02
2016-06-15T06:43:24.229Z,19.04
2016-06-15T06:44:29.779Z,19.11
2016-06-15T06:45:24.392Z,19.06
2016-06-15T06:46:24.300Z,19.11
2016-06-15T06:47:38.507Z,19.08
2016-06-15T06:49:24.373Z,19.13
2016-06-15T06:50:24.423Z,19.08
2016-06-15T06:51:24.566Z,19.08
2016-06-15T06:52:24.444Z,19.02
2016-06-15T06:54:24.497Z,19.02
2016-06-15T06:55:24.517Z,19.06
2016-06-15T06:56:24.550Z,19.13
2016-06-15T06:57:24.585Z,19.06
2016-06-15T06:58:24.587Z,18.99
2016-06-15T06:59:24.622Z,19.16
2016-06-15T07:00:24.657Z,19.18
2016-06-15T07:01:24.675Z,19.16
2016-06-15T07:02:24.694Z,19.16
2016-06-15T07:03:24.728Z,19.06
2016-06-15T07:04:24.747Z,19.14
2016-06-15T07:05:24.781Z,19.13
2016-06-15T07:06:24.972Z,19.11
2016-06-15T07:07:24.818Z,19.07
2016-06-15T07:08:24.853Z,19.02
2016-06-15T07:09:24.981Z,19.06
2016-06-15T07:10:24.905Z,19.07
2016-06-15T07:11:24.925Z,19.07
2016-06-15T07:12:27.974Z,19.13
2016-06-15T07:13:39.165Z,19.04
2016-06-15T07:14:25.011Z,19.02
2016-06-15T07:15:25.031Z,19.08
2016-06-15T07:16:25.065Z,19.02
2016-06-15T07:18:25.102Z,19.08
2016-06-15T07:19:39.308Z,19.1
2016-06-15T07:20:25.155Z,19.04
2016-06-15T07:21:25.034Z,18.99
2016-06-15T07:22:25.224Z,19.14
2016-06-15T07:23:25.242Z,19.18
2016-06-15T07:25:25.281Z,19.1
2016-06-15T07:26:25.298Z,19.19
2016-06-15T07:27:25.333Z,19.22
2016-06-15T07:28:25.352Z,19.16
2016-06-15T07:29:25.371Z,19.29
2016-06-15T07:30:25.405Z,19.22
2016-06-15T07:31:25.439Z,19.33
2016-06-15T07:32:25.458Z,19.32
2016-06-15T07:33:25.476Z,19.31
2016-06-15T07:34:25.511Z,19.32
2016-06-15T07:35:39.717Z,19.22
2016-06-15T07:36:25.798Z,19.32
2016-06-15T07:37:26.567Z,19.19
2016-06-15T07:38:25.601Z,19.19
2016-06-15T07:39:25.760Z,19.16
2016-06-15T07:40:25.655Z,19.23
2016-06-15T07:41:25.689Z,19.29
2016-06-15T07:42:25.722Z,19.28
2016-06-15T07:43:25.742Z,19.37
2016-06-15T07:44:25.760Z,19.37
2016-06-15T07:45:39.967Z,19.41
2016-06-15T07:46:25.813Z,19.43
2016-06-15T07:47:25.832Z,19.23
2016-06-15T07:48:25.710Z,19.21
2016-06-15T07:49:25.885Z,19.14
2016-06-15T07:50:25.763Z,19.14
2016-06-15T07:51:40.360Z,19.06
2016-06-15T07:52:26.223Z,19
2016-06-15T07:53:40.022Z,18.95
2016-06-15T07:55:26.044Z,18.87
2016-06-15T07:56:26.063Z,18.85
2016-06-15T07:57:26.097Z,18.92
2016-06-15T07:58:25.959Z,18.92
2016-06-15T07:59:26.135Z,18.85
2016-06-15T08:00:40.356Z,18.92
2016-06-15T08:01:26.203Z,18.99
2016-06-15T08:02:26.222Z,18.94
2016-06-15T08:03:40.428Z,18.91
2016-06-15T08:04:26.275Z,18.92
2016-06-15T08:05:26.293Z,18.85
2016-06-15T08:06:26.172Z,18.9
2016-06-15T08:07:40.534Z,18.81
2016-06-15T08:08:26.381Z,18.8
2016-06-15T08:09:26.400Z,18.76
2016-06-15T08:10:26.418Z,18.73
2016-06-15T08:11:26.437Z,18.7
2016-06-15T08:12:26.470Z,18.75
2016-06-15T08:14:26.524Z,18.57
2016-06-15T08:15:26.590Z,18.54
2016-06-15T08:16:26.609Z,18.69
2016-06-15T08:17:26.611Z,18.75
2016-06-15T08:18:26.505Z,18.85
2016-06-15T08:19:26.696Z,18.78
2016-06-15T08:20:26.667Z,18.85
2016-06-15T08:21:26.703Z,19
2016-06-15T08:22:40.923Z,19
2016-06-15T08:23:27.380Z,19.02
2016-06-15T08:24:26.930Z,19
2016-06-15T08:25:26.808Z,18.94
2016-06-15T08:26:26.827Z,18.99
2016-06-15T08:27:26.705Z,18.98
2016-06-15T08:28:26.880Z,18.98
2016-06-15T08:30:26.792Z,19
2016-06-15T08:31:26.951Z,18.99
2016-06-15T08:32:26.971Z,19.04
2016-06-15T08:33:26.989Z,18.99
2016-06-15T08:34:27.024Z,19.02
2016-06-15T08:35:27.058Z,19.07
2016-06-15T08:36:26.936Z,19.02
2016-06-15T08:37:26.908Z,18.94
2016-06-15T08:38:27.129Z,18.98
2016-06-15T08:39:27.148Z,18.94
2016-06-15T08:40:27.182Z,18.91
2016-06-15T08:41:27.201Z,18.92
2016-06-15T08:42:27.235Z,18.9
2016-06-15T08:43:27.254Z,18.88
2016-06-15T08:44:27.288Z,18.87
2016-06-15T08:45:27.308Z,18.88
2016-06-15T08:47:27.361Z,18.91
2016-06-15T08:48:41.581Z,18.81
2016-06-15T08:49:27.413Z,18.85
2016-06-15T08:50:27.292Z,18.76
2016-06-15T08:51:28.637Z,18.85
2016-06-15T08:52:27.923Z,18.82
2016-06-15T08:53:27.503Z,18.7
2016-06-15T08:54:41.554Z,18.73
2016-06-15T08:55:27.557Z,18.76
2016-06-15T08:56:27.575Z,18.72
2016-06-15T08:57:27.609Z,18.69
2016-06-15T08:58:27.628Z,18.69
2016-06-15T08:59:27.662Z,18.75
2016-06-15T09:00:27.900Z,18.7
2016-06-15T09:01:30.763Z,18.72
2016-06-15T09:02:27.735Z,18.8
2016-06-15T09:03:27.753Z,18.78
2016-06-15T09:04:27.788Z,18.72
2016-06-15T09:05:27.806Z,18.75
2016-06-15T09:06:28.231Z,18.72
2016-06-15T09:07:27.875Z,18.72
2016-06-15T09:08:27.894Z,18.84
2016-06-15T09:09:27.912Z,18.73
2016-06-15T09:10:42.118Z,18.76
2016-06-15T09:11:27.966Z,18.73
2016-06-15T09:12:27.984Z,18.84
2016-06-15T09:13:34.684Z,18.81
2016-06-15T09:14:28.013Z,18.73
2016-06-15T09:15:45.252Z,18.72
2016-06-15T09:16:28.080Z,18.7
2016-06-15T09:17:28.115Z,18.67
2016-06-15T09:18:28.134Z,18.75
2016-06-15T09:19:28.168Z,18.7
2016-06-15T09:20:28.186Z,18.82
2016-06-15T09:21:28.206Z,18.72
2016-06-15T09:22:28.083Z,18.75
2016-06-15T09:23:28.259Z,18.7
2016-06-15T09:24:28.276Z,18.7
2016-06-15T09:25:28.312Z,18.58
2016-06-15T09:26:42.532Z,18.72
2016-06-15T09:27:28.349Z,18.72
2016-06-15T09:28:28.399Z,18.67
2016-06-15T09:29:28.412Z,18.7
2016-06-15T09:30:28.430Z,18.72
2016-06-15T09:31:28.464Z,18.6
2016-06-15T09:33:28.346Z,18.75
2016-06-15T09:34:28.536Z,18.67
2016-06-15T09:35:42.743Z,18.7
2016-06-15T09:36:42.762Z,18.62
2016-06-15T09:37:28.607Z,18.72
2016-06-15T09:38:28.642Z,18.73
2016-06-15T09:39:28.660Z,18.67
2016-06-15T09:40:28.696Z,18.76
2016-06-15T09:41:28.714Z,18.72
2016-06-15T09:42:42.920Z,18.7
2016-06-15T09:43:28.751Z,18.58
2016-06-15T09:44:28.786Z,18.58
2016-06-15T09:45:28.821Z,18.62
2016-06-15T09:47:28.873Z,18.67
2016-06-15T09:48:28.735Z,18.58
2016-06-15T09:49:28.927Z,18.7
2016-06-15T09:51:43.151Z,18.63
2016-06-15T09:52:28.998Z,18.63
2016-06-15T09:53:29.579Z,18.57
2016-06-15T09:54:29.034Z,18.55
2016-06-15T09:55:29.054Z,18.54
2016-06-15T09:56:29.088Z,18.57
2016-06-15T09:57:43.294Z,18.42
2016-06-15T09:58:29.141Z,18.39
2016-06-15T09:59:29.161Z,18.5
2016-06-15T10:00:29.178Z,18.35
2016-06-15T10:01:29.213Z,18.44
2016-06-15T10:02:29.247Z,18.25
2016-06-15T10:03:29.281Z,18.17
2016-06-15T10:04:29.319Z,18.05
2016-06-15T10:05:29.377Z,18.18
2016-06-15T10:07:29.871Z,18.07
2016-06-15T10:08:29.569Z,18.12
2016-06-15T10:09:29.631Z,18.12
2016-06-15T10:10:29.665Z,18.26
2016-06-15T10:11:30.228Z,18.2
2016-06-15T10:12:29.746Z,18.27
2016-06-15T10:13:29.764Z,18.27
2016-06-15T10:14:29.824Z,18.14
2016-06-15T10:15:29.832Z,18.08
2016-06-15T10:16:31.715Z,18.1
2016-06-15T10:17:47.802Z,18.17
2016-06-15T10:18:29.966Z,18.27
2016-06-15T10:19:29.957Z,18.29
2016-06-15T10:20:29.978Z,18.29
2016-06-15T10:22:30.347Z,18.26
2016-06-15T10:23:44.243Z,18.36
2016-06-15T10:24:30.091Z,18.35
2016-06-15T10:25:30.110Z,18.42
2016-06-15T10:26:30.146Z,18.23
2016-06-15T10:27:30.163Z,18.18
2016-06-15T10:28:30.198Z,18.27
2016-06-15T10:29:44.406Z,18.3
2016-06-15T10:30:30.252Z,18.21
2016-06-15T10:31:30.271Z,18.44
2016-06-15T10:32:30.306Z,18.48
2016-06-15T10:33:30.325Z,18.44
2016-06-15T10:34:30.344Z,18.65
2016-06-15T10:35:32.801Z,18.6
2016-06-15T10:36:43.382Z,18.82
2016-06-15T10:37:42.448Z,18.85
2016-06-15T10:38:51.372Z,18.85
2016-06-15T10:40:10.754Z,19.02
2016-06-15T10:41:07.804Z,18.91
2016-06-15T10:42:03.682Z,18.91
2016-06-15T10:42:54.963Z,19.02
2016-06-15T10:43:43.935Z,19.08
2016-06-15T10:44:43.797Z,19.13
2016-06-15T10:45:47.535Z,19
2016-06-15T10:47:24.213Z,19.13
2016-06-15T10:48:12.075Z,19.25
2016-06-15T10:49:03.966Z,19.31
2016-06-15T10:50:14.879Z,19.32
2016-06-15T10:51:18.163Z,19.43
2016-06-15T10:52:12.807Z,19.44
2016-06-15T10:53:50.513Z,19.61
2016-06-15T10:55:15.659Z,19.5
2016-06-15T10:55:53.316Z,19.59
2016-06-15T10:56:29.459Z,19.54
2016-06-15T10:57:29.478Z,19.58
2016-06-15T10:59:29.532Z,19.61
2016-06-15T11:00:43.738Z,19.68
2016-06-15T11:01:29.585Z,19.76
2016-06-15T11:02:29.635Z,19.73
2016-06-15T11:03:29.638Z,19.77
2016-06-15T11:04:29.656Z,19.74
2016-06-15T11:05:29.690Z,19.83
2016-06-15T11:06:43.898Z,20.03
2016-06-15T11:07:30.181Z,20.1
2016-06-15T11:08:43.949Z,20.16
2016-06-15T11:09:29.797Z,20.06
2016-06-15T11:10:29.815Z,20.02
2016-06-15T11:11:44.022Z,19.62
2016-06-15T11:12:31.087Z,19.83
2016-06-15T11:13:29.887Z,19.86
2016-06-15T11:14:29.921Z,19.95
2016-06-15T11:15:29.940Z,20.14
2016-06-15T11:16:44.146Z,20.11
2016-06-15T11:17:29.993Z,20.01
2016-06-15T11:18:30.013Z,19.99
2016-06-15T11:19:30.046Z,20.17
2016-06-15T11:20:30.081Z,19.87
2016-06-15T11:21:30.115Z,19.88
2016-06-15T11:22:30.524Z,20.05
2016-06-15T11:23:30.152Z,20.21
2016-06-15T11:24:30.187Z,20.33
2016-06-15T11:25:30.205Z,20.42
2016-06-15T11:26:30.224Z,20.5
2016-06-15T11:27:44.446Z,20.43
2016-06-15T11:28:30.292Z,20.29
2016-06-15T11:29:30.155Z,20.24
2016-06-15T11:30:30.189Z,20.1
2016-06-15T11:31:30.349Z,19.77
2016-06-15T11:32:44.570Z,19.55
2016-06-15T11:33:30.417Z,19.51
2016-06-15T11:34:30.436Z,19.56
2016-06-15T11:35:30.471Z,19.54
2016-06-15T11:36:30.505Z,19.46
2016-06-15T11:37:30.820Z,19.55
2016-06-15T11:38:30.541Z,19.54
2016-06-15T11:39:30.576Z,19.68
2016-06-15T11:40:30.594Z,19.73
2016-06-15T11:41:30.630Z,19.71
2016-06-15T11:42:44.836Z,19.81
2016-06-15T11:43:30.682Z,19.8
2016-06-15T11:44:30.701Z,19.83
2016-06-15T11:45:30.735Z,19.83
2016-06-15T11:46:30.755Z,19.8
2016-06-15T11:47:44.960Z,19.74
2016-06-15T11:48:30.807Z,19.81
2016-06-15T11:49:30.670Z,19.77
2016-06-15T11:50:30.860Z,19.83
2016-06-15T11:51:30.879Z,19.87
2016-06-15T11:52:45.414Z,19.94
2016-06-15T11:53:30.932Z,19.87
2016-06-15T11:55:31.000Z,19.98
2016-06-15T11:56:31.019Z,20.08
2016-06-15T11:58:31.072Z,19.88
2016-06-15T11:59:45.264Z,19.88
2016-06-15T12:00:31.109Z,19.91
2016-06-15T12:01:31.145Z,19.91
2016-06-15T12:02:31.179Z,19.87
2016-06-15T12:03:31.198Z,19.77
2016-06-15T12:04:31.076Z,19.77
2016-06-15T12:05:31.249Z,19.78
2016-06-15T12:07:31.396Z,19.78
2016-06-15T12:08:31.322Z,19.88
2016-06-15T12:09:31.356Z,19.96
2016-06-15T12:10:31.375Z,20.02
2016-06-15T12:12:45.615Z,19.74
2016-06-15T12:13:31.462Z,19.76
2016-06-15T12:14:31.497Z,19.68
2016-06-15T12:15:31.500Z,19.74
2016-06-15T12:16:31.533Z,19.73
2016-06-15T12:17:31.568Z,19.81
2016-06-15T12:18:31.587Z,19.74
2016-06-15T12:19:45.809Z,19.78
2016-06-15T12:20:31.625Z,19.92
2016-06-15T12:21:31.503Z,19.91
2016-06-15T12:22:45.880Z,19.74
2016-06-15T12:23:31.712Z,19.77
2016-06-15T12:24:31.746Z,19.62
2016-06-15T12:25:31.765Z,19.56
2016-06-15T12:26:31.814Z,19.48
2016-06-15T12:27:46.005Z,19.58
2016-06-15T12:28:31.836Z,19.47
2016-06-15T12:29:46.043Z,19.65
2016-06-15T12:30:46.077Z,19.55
2016-06-15T12:31:31.924Z,19.61
2016-06-15T12:32:31.957Z,19.58
2016-06-15T12:33:31.976Z,19.44
2016-06-15T12:34:31.839Z,19.29
2016-06-15T12:35:46.217Z,19.32
2016-06-15T12:36:32.048Z,19.48
2016-06-15T12:37:32.208Z,19.51
2016-06-15T12:38:32.101Z,19.44
2016-06-15T12:39:32.136Z,19.61
2016-06-15T12:41:32.189Z,19.58
2016-06-15T12:42:32.051Z,19.77
2016-06-15T12:43:32.085Z,19.98
2016-06-15T12:44:32.261Z,20.11
2016-06-15T12:45:32.123Z,20.28
2016-06-15T12:46:46.486Z,20.41
2016-06-15T12:47:32.333Z,20.48
2016-06-15T12:48:32.366Z,20.61
2016-06-15T12:49:32.385Z,20.51
2016-06-15T12:50:32.420Z,20.64
2016-06-15T12:51:46.626Z,20.62
2016-06-15T12:52:32.473Z,20.55
2016-06-15T12:53:32.491Z,20.62
2016-06-15T12:54:32.526Z,20.72
2016-06-15T12:55:32.544Z,20.72
2016-06-15T12:56:32.563Z,20.66
2016-06-15T12:57:32.597Z,20.54
2016-06-15T12:58:32.632Z,20.59
2016-06-15T12:59:32.651Z,20.66
2016-06-15T13:00:32.669Z,20.61
2016-06-15T13:01:32.704Z,20.62
2016-06-15T13:02:32.722Z,20.62
2016-06-15T13:03:32.772Z,20.41
2016-06-15T13:04:46.963Z,20.18
2016-06-15T13:05:32.809Z,20.23
2016-06-15T13:06:32.672Z,20.23
2016-06-15T13:07:47.159Z,20.21
2016-06-15T13:08:32.881Z,20.31
2016-06-15T13:09:32.916Z,20.39
2016-06-15T13:10:32.949Z,20.51
2016-06-15T13:11:32.968Z,20.66
2016-06-15T13:12:32.988Z,20.7
2016-06-15T13:13:33.021Z,20.7
2016-06-15T13:14:33.041Z,20.7
2016-06-15T13:15:33.075Z,20.74
2016-06-15T13:16:33.109Z,20.91
2016-06-15T13:17:33.112Z,21.01
2016-06-15T13:18:33.146Z,20.95
2016-06-15T13:19:33.181Z,21.09
2016-06-15T13:20:33.216Z,20.87
2016-06-15T13:21:33.233Z,20.91
2016-06-15T13:22:47.440Z,20.98
2016-06-15T13:23:33.287Z,21.06
2016-06-15T13:25:33.340Z,21.01
2016-06-15T13:26:33.359Z,21.04
2016-06-15T13:27:33.393Z,21.14
2016-06-15T13:29:33.446Z,21.38
2016-06-15T13:30:33.465Z,21.38
2016-06-15T13:31:33.499Z,21.49
2016-06-15T13:32:33.517Z,21.5
2016-06-15T13:33:47.724Z,21.4
2016-06-15T13:34:33.571Z,21.47
2016-06-15T13:35:33.605Z,21.49
2016-06-15T13:36:33.624Z,21.4
2016-06-15T13:37:33.705Z,21.44
2016-06-15T13:38:33.677Z,21.56
2016-06-15T13:39:33.710Z,21.68
2016-06-15T13:40:33.730Z,21.86